OCN1ZM EDDF-EINN
Flight info
| Callsign | OCN1ZM |
|---|---|
| Flight time | N/A |
| Altitude | 36000 |
| Route | OBOKA3M/25C OBOKA Z29 TORNU DCT BREDA DCT GALSO Q63 ERING L179 UGBET Q60 OKSAW DCT BIBPE DCT FELCA DCT NICXI DCT OFSOX DCT SLANY DCT TIPUR TIPUR2D |
| Aircraft | A320/M-SDE3FGHIRWY/LB1 |
Departure
| Time | N/A |
|---|---|
| Airport | Frankfurt Main Airport (EDDF) |
Arrival
| Time | 2026-05-07 18:13 |
|---|---|
| Airport | Shannon Airport (EINN) |
| Time | Latitude | Longitude | Altitude | Speed | Heading |
|---|---|---|---|---|---|
| 2026-05-07 16:38 | 50.55490 | 7.58609 | 20687 ft | 433 kts | 319° |
| 2026-05-07 16:38 | 50.57822 | 7.55586 | 21071 ft | 435 kts | 319° |
| 2026-05-07 16:38 | 50.60143 | 7.52571 | 21444 ft | 437 kts | 319° |
| 2026-05-07 16:38 | 50.62487 | 7.49519 | 21815 ft | 439 kts | 319° |
| 2026-05-07 16:39 | 50.64846 | 7.46442 | 22193 ft | 441 kts | 319° |
| 2026-05-07 16:39 | 50.67217 | 7.43345 | 22518 ft | 444 kts | 319° |
| 2026-05-07 16:39 | 50.69598 | 7.40228 | 22866 ft | 447 kts | 319° |
| 2026-05-07 16:39 | 50.71983 | 7.37061 | 23222 ft | 448 kts | 316° |
| 2026-05-07 16:40 | 50.74121 | 7.33487 | 23542 ft | 448 kts | 307° |
| 2026-05-07 16:40 | 50.75889 | 7.29434 | 23813 ft | 449 kts | 298° |
| 2026-05-07 16:40 | 50.77335 | 7.25065 | 24073 ft | 450 kts | 296° |
| 2026-05-07 16:40 | 50.78762 | 7.20659 | 24365 ft | 451 kts | 296° |
| 2026-05-07 16:41 | 50.80199 | 7.16239 | 24631 ft | 453 kts | 296° |
| 2026-05-07 16:41 | 50.81642 | 7.11806 | 24903 ft | 454 kts | 296° |
| 2026-05-07 16:41 | 50.83093 | 7.07351 | 25163 ft | 456 kts | 296° |
| 2026-05-07 16:41 | 50.84545 | 7.02886 | 25443 ft | 457 kts | 296° |
| 2026-05-07 16:42 | 50.85981 | 6.98456 | 25814 ft | 456 kts | 296° |
| 2026-05-07 16:42 | 50.87423 | 6.93987 | 26193 ft | 454 kts | 296° |
| 2026-05-07 16:42 | 50.88855 | 6.89545 | 26568 ft | 453 kts | 296° |
| 2026-05-07 16:42 | 50.90287 | 6.85093 | 26945 ft | 452 kts | 296° |
| 2026-05-07 16:43 | 50.91707 | 6.80663 | 27338 ft | 451 kts | 296° |
| 2026-05-07 16:43 | 50.93124 | 6.76234 | 27723 ft | 450 kts | 296° |
| 2026-05-07 16:43 | 50.94539 | 6.71811 | 28104 ft | 449 kts | 296° |
| 2026-05-07 16:43 | 50.95950 | 6.67388 | 28498 ft | 448 kts | 296° |
| 2026-05-07 16:44 | 50.97353 | 6.62976 | 28897 ft | 447 kts | 296° |
| 2026-05-07 16:44 | 50.98751 | 6.58570 | 29299 ft | 446 kts | 296° |
| 2026-05-07 16:44 | 51.00146 | 6.54180 | 29701 ft | 445 kts | 296° |
| 2026-05-07 16:44 | 51.01533 | 6.49808 | 30093 ft | 444 kts | 296° |
| 2026-05-07 16:45 | 51.02918 | 6.45426 | 30426 ft | 443 kts | 296° |
| 2026-05-07 16:45 | 51.04295 | 6.41059 | 30759 ft | 442 kts | 296° |
| 2026-05-07 16:45 | 51.05668 | 6.36700 | 31082 ft | 441 kts | 296° |
| 2026-05-07 16:45 | 51.07037 | 6.32345 | 31414 ft | 440 kts | 295° |
| 2026-05-07 16:46 | 51.08400 | 6.27993 | 31737 ft | 439 kts | 295° |
| 2026-05-07 16:46 | 51.09758 | 6.23657 | 32071 ft | 438 kts | 295° |
| 2026-05-07 16:46 | 51.11115 | 6.19324 | 32401 ft | 437 kts | 295° |
| 2026-05-07 16:46 | 51.12468 | 6.14994 | 32729 ft | 436 kts | 295° |
| 2026-05-07 16:47 | 51.13756 | 6.10634 | 33064 ft | 434 kts | 290° |
| 2026-05-07 16:47 | 51.14663 | 6.06060 | 33372 ft | 432 kts | 283° |
| 2026-05-07 16:47 | 51.15407 | 6.01422 | 33681 ft | 432 kts | 283° |
| 2026-05-07 16:47 | 51.16153 | 5.96797 | 33996 ft | 431 kts | 283° |
| 2026-05-07 16:48 | 51.16898 | 5.92183 | 34276 ft | 430 kts | 283° |
| 2026-05-07 16:48 | 51.17650 | 5.87563 | 34507 ft | 431 kts | 284° |
| 2026-05-07 16:48 | 51.18660 | 5.83068 | 34716 ft | 432 kts | 294° |
| 2026-05-07 16:48 | 51.20105 | 5.78848 | 34916 ft | 435 kts | 301° |
| 2026-05-07 16:49 | 51.21713 | 5.74756 | 35083 ft | 436 kts | 300° |
| 2026-05-07 16:49 | 51.23320 | 5.70644 | 35277 ft | 437 kts | 300° |
| 2026-05-07 16:49 | 51.24918 | 5.66530 | 35474 ft | 437 kts | 300° |
| 2026-05-07 16:49 | 51.26521 | 5.62391 | 35667 ft | 438 kts | 300° |
| 2026-05-07 16:50 | 51.28114 | 5.58276 | 35857 ft | 438 kts | 300° |
| 2026-05-07 16:50 | 51.29718 | 5.54131 | 36015 ft | 439 kts | 300° |
| 2026-05-07 16:50 | 51.31331 | 5.49969 | 36054 ft | 443 kts | 300° |
| 2026-05-07 16:51 | 51.34567 | 5.41600 | 36081 ft | 446 kts | 300° |
| 2026-05-07 16:51 | 51.37846 | 5.33082 | 36085 ft | 447 kts | 300° |
| 2026-05-07 16:52 | 51.41099 | 5.24601 | 36085 ft | 447 kts | 300° |
| 2026-05-07 16:52 | 51.44331 | 5.16165 | 36080 ft | 447 kts | 300° |
| 2026-05-07 16:53 | 51.47578 | 5.07667 | 36093 ft | 447 kts | 300° |
| 2026-05-07 16:53 | 51.50817 | 4.99124 | 36090 ft | 448 kts | 300° |
| 2026-05-07 16:54 | 51.54046 | 4.90572 | 36094 ft | 448 kts | 299° |
| 2026-05-07 16:54 | 51.56429 | 4.81402 | 36095 ft | 444 kts | 282° |
| 2026-05-07 16:55 | 51.57530 | 4.71652 | 36092 ft | 443 kts | 278° |
| 2026-05-07 16:55 | 51.58585 | 4.61879 | 36086 ft | 443 kts | 278° |
| 2026-05-07 16:56 | 51.59639 | 4.52111 | 36088 ft | 443 kts | 278° |
| 2026-05-07 16:56 | 51.61200 | 4.37449 | 36087 ft | 444 kts | 278° |
| 2026-05-07 16:57 | 51.62234 | 4.27667 | 36090 ft | 444 kts | 278° |
| 2026-05-07 16:57 | 51.63263 | 4.17870 | 36087 ft | 444 kts | 278° |
| 2026-05-07 16:58 | 51.64273 | 4.08077 | 36087 ft | 444 kts | 278° |
| 2026-05-07 16:58 | 51.65276 | 3.98274 | 36086 ft | 444 kts | 278° |
| 2026-05-07 16:59 | 51.66280 | 3.88471 | 36084 ft | 444 kts | 278° |
| 2026-05-07 16:59 | 51.67274 | 3.78659 | 36095 ft | 444 kts | 278° |
| 2026-05-07 17:00 | 51.68252 | 3.68845 | 36097 ft | 443 kts | 277° |
| 2026-05-07 17:00 | 51.69222 | 3.59033 | 36089 ft | 443 kts | 277° |
| 2026-05-07 17:01 | 51.70181 | 3.49232 | 36092 ft | 443 kts | 277° |
| 2026-05-07 17:01 | 51.71142 | 3.39414 | 36094 ft | 443 kts | 277° |
| 2026-05-07 17:02 | 51.72093 | 3.29608 | 36094 ft | 442 kts | 277° |
| 2026-05-07 17:02 | 51.72992 | 3.19799 | 36099 ft | 441 kts | 273° |
| 2026-05-07 17:03 | 51.72663 | 3.09976 | 36103 ft | 439 kts | 261° |
| 2026-05-07 17:03 | 51.71817 | 3.00230 | 36100 ft | 439 kts | 261° |
| 2026-05-07 17:04 | 51.70971 | 2.90476 | 36099 ft | 439 kts | 261° |
| 2026-05-07 17:04 | 51.70113 | 2.80724 | 36096 ft | 439 kts | 261° |
| 2026-05-07 17:05 | 51.69241 | 2.70983 | 36099 ft | 439 kts | 261° |
| 2026-05-07 17:05 | 51.68514 | 2.62884 | 36095 ft | 439 kts | 261° |
| 2026-05-07 17:06 | 51.67644 | 2.53149 | 36093 ft | 439 kts | 261° |
| 2026-05-07 17:06 | 51.66621 | 2.41844 | 36090 ft | 439 kts | 261° |
| 2026-05-07 17:07 | 51.65873 | 2.33701 | 36097 ft | 439 kts | 261° |
| 2026-05-07 17:07 | 51.64972 | 2.23988 | 36087 ft | 439 kts | 261° |
| 2026-05-07 17:08 | 51.64068 | 2.14282 | 36093 ft | 439 kts | 260° |
| 2026-05-07 17:08 | 51.63155 | 2.04570 | 36090 ft | 439 kts | 261° |
| 2026-05-07 17:09 | 51.62248 | 1.94851 | 36090 ft | 439 kts | 261° |
| 2026-05-07 17:09 | 51.61340 | 1.85156 | 36097 ft | 438 kts | 261° |
| 2026-05-07 17:10 | 51.60430 | 1.75460 | 36088 ft | 438 kts | 260° |
| 2026-05-07 17:10 | 51.59502 | 1.65780 | 36091 ft | 438 kts | 260° |
| 2026-05-07 17:11 | 51.59282 | 1.56076 | 36089 ft | 439 kts | 273° |
| 2026-05-07 17:11 | 51.59728 | 1.46209 | 36087 ft | 439 kts | 272° |
| 2026-05-07 17:12 | 51.60144 | 1.36474 | 36104 ft | 439 kts | 272° |
| 2026-05-07 17:12 | 51.60343 | 1.31589 | 36435 ft | 436 kts | 272° |
| 2026-05-07 17:12 | 51.60538 | 1.26740 | 36699 ft | 435 kts | 272° |
| 2026-05-07 17:13 | 51.60735 | 1.21887 | 36880 ft | 435 kts | 272° |
| 2026-05-07 17:13 | 51.60870 | 1.18608 | 37002 ft | 435 kts | 272° |
| 2026-05-07 17:13 | 51.61172 | 1.11369 | 37250 ft | 435 kts | 272° |
| 2026-05-07 17:14 | 51.61363 | 1.06499 | 37416 ft | 436 kts | 272° |
| 2026-05-07 17:14 | 51.61549 | 1.01642 | 37579 ft | 436 kts | 272° |
| 2026-05-07 17:14 | 51.61732 | 0.96791 | 37743 ft | 436 kts | 272° |
| 2026-05-07 17:14 | 51.61916 | 0.91923 | 37910 ft | 437 kts | 272° |
| 2026-05-07 17:15 | 51.62102 | 0.87047 | 38063 ft | 437 kts | 272° |
| 2026-05-07 17:15 | 51.62286 | 0.82156 | 38089 ft | 438 kts | 272° |
| 2026-05-07 17:15 | 51.62650 | 0.72378 | 38088 ft | 438 kts | 272° |
| 2026-05-07 17:16 | 51.63005 | 0.62608 | 38088 ft | 438 kts | 272° |
| 2026-05-07 17:16 | 51.63351 | 0.52820 | 38081 ft | 438 kts | 271° |
| 2026-05-07 17:17 | 51.63688 | 0.43027 | 38087 ft | 438 kts | 271° |
| 2026-05-07 17:17 | 51.64019 | 0.33242 | 38069 ft | 438 kts | 271° |
| 2026-05-07 17:18 | 51.64337 | 0.23456 | 38070 ft | 438 kts | 271° |
| 2026-05-07 17:18 | 51.64413 | 0.13672 | 38069 ft | 436 kts | 262° |
| 2026-05-07 17:19 | 51.63413 | 0.04056 | 38066 ft | 436 kts | 259° |
| 2026-05-07 17:19 | 51.62369 | -0.05549 | 38090 ft | 436 kts | 259° |
| 2026-05-07 17:20 | 51.61909 | -0.15262 | 38083 ft | 438 kts | 274° |
| 2026-05-07 17:20 | 51.62521 | -0.25018 | 38095 ft | 438 kts | 274° |
| 2026-05-07 17:21 | 51.63125 | -0.34785 | 38099 ft | 439 kts | 274° |
| 2026-05-07 17:21 | 51.63710 | -0.44564 | 38059 ft | 439 kts | 274° |
| 2026-05-07 17:22 | 51.64283 | -0.54343 | 38059 ft | 439 kts | 274° |
| 2026-05-07 17:22 | 51.64851 | -0.64127 | 38063 ft | 439 kts | 274° |
| 2026-05-07 17:23 | 51.65416 | -0.73916 | 38061 ft | 439 kts | 274° |
| 2026-05-07 17:23 | 51.65971 | -0.83715 | 38052 ft | 439 kts | 274° |
| 2026-05-07 17:24 | 51.66515 | -0.93511 | 38034 ft | 439 kts | 273° |
| 2026-05-07 17:24 | 51.67050 | -1.03264 | 38047 ft | 440 kts | 273° |
| 2026-05-07 17:25 | 51.67580 | -1.13073 | 38045 ft | 440 kts | 273° |
| 2026-05-07 17:25 | 51.68104 | -1.22886 | 38044 ft | 440 kts | 273° |
| 2026-05-07 17:26 | 51.68619 | -1.32702 | 38038 ft | 440 kts | 273° |
| 2026-05-07 17:26 | 51.69128 | -1.42532 | 38044 ft | 440 kts | 273° |
| 2026-05-07 17:27 | 51.69626 | -1.52352 | 38044 ft | 440 kts | 273° |
| 2026-05-07 17:27 | 51.70115 | -1.62252 | 38039 ft | 440 kts | 273° |
| 2026-05-07 17:28 | 51.70617 | -1.72019 | 38045 ft | 440 kts | 274° |
| 2026-05-07 17:28 | 51.71313 | -1.81822 | 38049 ft | 440 kts | 275° |
| 2026-05-07 17:29 | 51.72082 | -1.91619 | 38046 ft | 441 kts | 275° |
| 2026-05-07 17:29 | 51.72811 | -2.01438 | 38047 ft | 441 kts | 275° |
| 2026-05-07 17:30 | 51.73493 | -2.11254 | 38043 ft | 441 kts | 274° |
| 2026-05-07 17:30 | 51.74161 | -2.21086 | 38042 ft | 441 kts | 274° |
| 2026-05-07 17:31 | 51.74823 | -2.30915 | 38041 ft | 441 kts | 274° |
| 2026-05-07 17:31 | 51.75487 | -2.40750 | 38036 ft | 441 kts | 274° |
| 2026-05-07 17:32 | 51.76151 | -2.50590 | 38041 ft | 441 kts | 274° |
| 2026-05-07 17:32 | 51.76691 | -2.58769 | 38034 ft | 441 kts | 274° |
| 2026-05-07 17:33 | 51.77438 | -2.70291 | 38027 ft | 441 kts | 274° |
| 2026-05-07 17:33 | 51.78073 | -2.80140 | 38039 ft | 441 kts | 274° |
| 2026-05-07 17:34 | 51.78695 | -2.90013 | 38070 ft | 441 kts | 274° |
| 2026-05-07 17:34 | 51.79306 | -2.99876 | 38077 ft | 441 kts | 274° |
| 2026-05-07 17:35 | 51.79919 | -3.09739 | 38066 ft | 441 kts | 274° |
| 2026-05-07 17:35 | 51.80518 | -3.19611 | 38055 ft | 441 kts | 274° |
| 2026-05-07 17:36 | 51.81105 | -3.29481 | 38045 ft | 441 kts | 274° |
| 2026-05-07 17:36 | 51.81688 | -3.39353 | 38036 ft | 441 kts | 274° |
| 2026-05-07 17:37 | 51.82265 | -3.49232 | 38030 ft | 441 kts | 273° |
| 2026-05-07 17:37 | 51.83197 | -3.59046 | 38027 ft | 443 kts | 279° |
| 2026-05-07 17:38 | 51.84462 | -3.68783 | 38025 ft | 443 kts | 279° |
| 2026-05-07 17:38 | 51.85717 | -3.78473 | 38024 ft | 443 kts | 279° |
| 2026-05-07 17:39 | 51.86969 | -3.88235 | 38024 ft | 443 kts | 279° |
| 2026-05-07 17:39 | 51.88206 | -3.98006 | 38026 ft | 443 kts | 279° |
| 2026-05-07 17:40 | 51.89438 | -4.07787 | 38024 ft | 443 kts | 279° |
| 2026-05-07 17:40 | 51.90668 | -4.17565 | 38025 ft | 443 kts | 279° |
| 2026-05-07 17:41 | 51.91888 | -4.27359 | 38019 ft | 443 kts | 279° |
| 2026-05-07 17:41 | 51.93006 | -4.36429 | 38023 ft | 444 kts | 279° |
| 2026-05-07 17:42 | 51.94199 | -4.46240 | 38027 ft | 444 kts | 279° |
| 2026-05-07 17:42 | 51.95390 | -4.56052 | 38014 ft | 444 kts | 279° |
| 2026-05-07 17:43 | 51.96584 | -4.65879 | 38019 ft | 444 kts | 279° |
| 2026-05-07 17:43 | 51.97773 | -4.75709 | 38014 ft | 444 kts | 279° |
| 2026-05-07 17:44 | 51.98943 | -4.85548 | 38015 ft | 444 kts | 278° |
| 2026-05-07 17:44 | 52.00105 | -4.95382 | 38017 ft | 444 kts | 278° |
| 2026-05-07 17:45 | 52.01261 | -5.05242 | 38018 ft | 444 kts | 278° |
| 2026-05-07 17:45 | 52.02407 | -5.15100 | 38013 ft | 444 kts | 278° |
| 2026-05-07 17:46 | 52.03997 | -5.24802 | 38010 ft | 446 kts | 286° |
| 2026-05-07 17:46 | 52.05945 | -5.34382 | 38014 ft | 447 kts | 285° |
| 2026-05-07 17:47 | 52.07872 | -5.43983 | 38009 ft | 447 kts | 285° |
| 2026-05-07 17:47 | 52.09789 | -5.53587 | 38009 ft | 447 kts | 285° |
| 2026-05-07 17:48 | 52.11704 | -5.63202 | 38012 ft | 447 kts | 285° |
| 2026-05-07 17:48 | 52.13595 | -5.72756 | 38007 ft | 447 kts | 285° |
| 2026-05-07 17:49 | 52.15496 | -5.82375 | 38021 ft | 447 kts | 285° |
| 2026-05-07 17:49 | 52.17383 | -5.91932 | 38016 ft | 446 kts | 285° |
| 2026-05-07 17:50 | 52.19316 | -6.01619 | 38016 ft | 446 kts | 285° |
| 2026-05-07 17:50 | 52.21235 | -6.11223 | 38017 ft | 445 kts | 285° |
| 2026-05-07 17:51 | 52.23133 | -6.20836 | 37984 ft | 446 kts | 285° |
| 2026-05-07 17:51 | 52.24078 | -6.25654 | 37702 ft | 445 kts | 285° |
| 2026-05-07 17:51 | 52.25016 | -6.30458 | 37432 ft | 444 kts | 285° |
| 2026-05-07 17:52 | 52.25951 | -6.35262 | 37160 ft | 444 kts | 285° |
| 2026-05-07 17:52 | 52.26886 | -6.40073 | 36894 ft | 444 kts | 285° |
| 2026-05-07 17:52 | 52.27503 | -6.43254 | 36725 ft | 444 kts | 285° |
| 2026-05-07 17:52 | 52.28434 | -6.48067 | 36474 ft | 444 kts | 285° |
| 2026-05-07 17:53 | 52.29364 | -6.52873 | 36214 ft | 444 kts | 285° |
| 2026-05-07 17:53 | 52.30297 | -6.57694 | 35959 ft | 445 kts | 285° |
| 2026-05-07 17:53 | 52.31227 | -6.62513 | 35359 ft | 446 kts | 284° |
| 2026-05-07 17:53 | 52.32158 | -6.67379 | 34484 ft | 451 kts | 284° |
| 2026-05-07 17:54 | 52.33095 | -6.72290 | 33523 ft | 455 kts | 284° |
| 2026-05-07 17:54 | 52.34040 | -6.77242 | 32652 ft | 455 kts | 284° |
| 2026-05-07 17:54 | 52.34986 | -6.82209 | 31697 ft | 458 kts | 284° |
| 2026-05-07 17:54 | 52.35933 | -6.87192 | 30697 ft | 461 kts | 284° |
| 2026-05-07 17:55 | 52.36881 | -6.92198 | 29637 ft | 463 kts | 284° |
| 2026-05-07 17:55 | 52.37831 | -6.97235 | 28508 ft | 464 kts | 284° |
| 2026-05-07 17:55 | 52.38783 | -7.02294 | 27360 ft | 466 kts | 284° |
| 2026-05-07 17:55 | 52.39741 | -7.07387 | 26175 ft | 468 kts | 284° |
| 2026-05-07 17:56 | 52.40699 | -7.12508 | 24925 ft | 472 kts | 284° |
| 2026-05-07 17:56 | 52.41660 | -7.17652 | 23820 ft | 473 kts | 284° |
| 2026-05-07 17:56 | 52.42611 | -7.22732 | 22726 ft | 458 kts | 284° |
| 2026-05-07 17:56 | 52.43529 | -7.27648 | 21680 ft | 444 kts | 284° |
| 2026-05-07 17:57 | 52.44424 | -7.32458 | 20903 ft | 439 kts | 284° |
| 2026-05-07 17:57 | 52.45307 | -7.37224 | 20096 ft | 435 kts | 284° |
| 2026-05-07 17:57 | 52.46180 | -7.41957 | 19299 ft | 432 kts | 284° |
| 2026-05-07 17:57 | 52.47042 | -7.46654 | 18516 ft | 429 kts | 284° |
| 2026-05-07 17:58 | 52.47896 | -7.51329 | 17712 ft | 426 kts | 284° |
| 2026-05-07 17:58 | 52.48738 | -7.55947 | 16982 ft | 421 kts | 284° |
| 2026-05-07 17:58 | 52.49576 | -7.60542 | 16261 ft | 416 kts | 284° |
| 2026-05-07 17:58 | 52.50397 | -7.65064 | 15575 ft | 411 kts | 284° |
| 2026-05-07 17:59 | 52.51211 | -7.69532 | 14916 ft | 406 kts | 284° |
| 2026-05-07 17:59 | 52.52015 | -7.73955 | 14266 ft | 402 kts | 284° |
| 2026-05-07 17:59 | 52.52805 | -7.78317 | 13636 ft | 397 kts | 284° |
| 2026-05-07 17:59 | 52.53584 | -7.82641 | 12983 ft | 392 kts | 284° |
| 2026-05-07 18:00 | 52.54349 | -7.86896 | 12386 ft | 385 kts | 284° |
| 2026-05-07 18:00 | 52.55098 | -7.91076 | 11793 ft | 379 kts | 284° |
| 2026-05-07 18:00 | 52.55835 | -7.95193 | 11307 ft | 370 kts | 284° |
| 2026-05-07 18:00 | 52.56544 | -7.99160 | 11176 ft | 353 kts | 284° |
| 2026-05-07 18:01 | 52.57218 | -8.02942 | 11052 ft | 337 kts | 284° |
| 2026-05-07 18:01 | 52.57864 | -8.06561 | 10924 ft | 323 kts | 284° |
| 2026-05-07 18:01 | 52.58547 | -8.10000 | 10799 ft | 311 kts | 291° |
| 2026-05-07 18:01 | 52.59555 | -8.13086 | 10676 ft | 302 kts | 302° |
| 2026-05-07 18:02 | 52.62302 | -8.18078 | 10344 ft | 288 kts | 312° |
| 2026-05-07 18:02 | 52.63706 | -8.20394 | 10283 ft | 286 kts | 312° |
| 2026-05-07 18:02 | 52.65113 | -8.22717 | 10187 ft | 286 kts | 312° |
| 2026-05-07 18:03 | 52.66512 | -8.25028 | 10068 ft | 285 kts | 312° |
| 2026-05-07 18:03 | 52.67911 | -8.27340 | 9939 ft | 285 kts | 312° |
| 2026-05-07 18:03 | 52.69324 | -8.29684 | 9360 ft | 292 kts | 312° |
| 2026-05-07 18:03 | 52.70737 | -8.32032 | 9082 ft | 286 kts | 312° |
| 2026-05-07 18:04 | 52.72132 | -8.34350 | 8663 ft | 282 kts | 312° |
| 2026-05-07 18:04 | 52.73505 | -8.36636 | 7962 ft | 280 kts | 312° |
| 2026-05-07 18:04 | 52.74869 | -8.38910 | 7301 ft | 278 kts | 312° |
| 2026-05-07 18:04 | 52.76223 | -8.41164 | 6650 ft | 275 kts | 312° |
| 2026-05-07 18:05 | 52.77563 | -8.43400 | 6009 ft | 272 kts | 312° |
| 2026-05-07 18:05 | 52.78882 | -8.45604 | 5500 ft | 263 kts | 312° |
| 2026-05-07 18:05 | 52.80116 | -8.47664 | 5344 ft | 241 kts | 312° |
| 2026-05-07 18:05 | 52.81261 | -8.49577 | 5251 ft | 228 kts | 312° |
| 2026-05-07 18:06 | 52.82330 | -8.51358 | 5170 ft | 215 kts | 311° |
| 2026-05-07 18:06 | 52.83363 | -8.53085 | 5070 ft | 208 kts | 311° |
| 2026-05-07 18:06 | 52.84305 | -8.54802 | 4929 ft | 196 kts | 300° |
| 2026-05-07 18:06 | 52.84872 | -8.56801 | 4819 ft | 186 kts | 281° |
| 2026-05-07 18:07 | 52.85013 | -8.58867 | 4693 ft | 183 kts | 263° |
| 2026-05-07 18:07 | 52.84754 | -8.60902 | 4513 ft | 181 kts | 246° |
| 2026-05-07 18:07 | 52.84130 | -8.62667 | 4316 ft | 177 kts | 232° |
| 2026-05-07 18:07 | 52.83375 | -8.64285 | 4062 ft | 182 kts | 232° |
| 2026-05-07 18:08 | 52.82544 | -8.66066 | 3827 ft | 200 kts | 232° |
| 2026-05-07 18:08 | 52.81726 | -8.67820 | 3653 ft | 184 kts | 232° |
| 2026-05-07 18:08 | 52.80977 | -8.69428 | 3527 ft | 172 kts | 232° |
| 2026-05-07 18:08 | 52.80267 | -8.70955 | 3355 ft | 164 kts | 233° |
| 2026-05-07 18:09 | 52.79556 | -8.72485 | 2943 ft | 171 kts | 232° |
| 2026-05-07 18:09 | 52.78829 | -8.74046 | 2635 ft | 171 kts | 233° |
| 2026-05-07 18:09 | 52.78108 | -8.75591 | 2378 ft | 168 kts | 233° |
| 2026-05-07 18:09 | 52.77403 | -8.77102 | 2138 ft | 164 kts | 233° |
| 2026-05-07 18:10 | 52.76716 | -8.78572 | 1911 ft | 158 kts | 232° |
| 2026-05-07 18:10 | 52.76062 | -8.79970 | 1712 ft | 150 kts | 233° |
| 2026-05-07 18:10 | 52.75439 | -8.81302 | 1505 ft | 143 kts | 233° |
| 2026-05-07 18:10 | 52.74855 | -8.82549 | 1318 ft | 134 kts | 233° |
| 2026-05-07 18:11 | 52.74286 | -8.83764 | 1124 ft | 133 kts | 234° |
| 2026-05-07 18:11 | 52.73914 | -8.84558 | 1004 ft | 132 kts | 233° |
| 2026-05-07 18:11 | 52.73162 | -8.86160 | 776 ft | 132 kts | 233° |
| 2026-05-07 18:11 | 52.72609 | -8.87342 | 604 ft | 128 kts | 233° |
| 2026-05-07 18:12 | 52.72061 | -8.88493 | 456 ft | 131 kts | 233° |
| 2026-05-07 18:12 | 52.71518 | -8.89680 | 247 ft | 126 kts | 233° |
| 2026-05-07 18:12 | 52.71001 | -8.90781 | 58 ft | 119 kts | 232° |
| 2026-05-07 18:12 | 52.70517 | -8.91804 | 11 ft | 100 kts | 232° |
| 2026-05-07 18:13 | 52.70195 | -8.92487 | 17 ft | 51 kts | 232° |
| 2026-05-07 18:13 | 52.70019 | -8.92856 | 22 ft | 28 kts | 231° |
| 2026-05-07 18:13 | 52.69892 | -8.92926 | 23 ft | 21 kts | 145° |
| 2026-05-07 18:13 | 52.69787 | -8.92759 | 22 ft | 21 kts | 135° |
| 2026-05-07 18:14 | 52.69677 | -8.92582 | 22 ft | 23 kts | 135° |
| 2026-05-07 18:14 | 52.69566 | -8.92403 | 22 ft | 19 kts | 134° |
| 2026-05-07 18:14 | 52.69499 | -8.92234 | 21 ft | 16 kts | 111° |
| 2026-05-07 18:14 | 52.69465 | -8.92165 | 21 ft | 6 kts | 170° |
| 2026-05-07 18:15 | 52.69429 | -8.92167 | 21 ft | 4 kts | 182° |
| 2026-05-07 18:15 | 52.69407 | -8.92168 | 22 ft | 2 kts | 183° |
| 2026-05-07 18:15 | 52.69399 | -8.92170 | 22 ft | 0 kts | 188° |
| 2026-05-07 18:15 | 52.69388 | -8.92173 | 23 ft | 1 kts | 188° |
| 2026-05-07 18:16 | 52.69375 | -8.92175 | 22 ft | 4 kts | 186° |
| 2026-05-07 18:16 | 52.69371 | -8.92176 | 22 ft | 0 kts | 186° |